Brockton, Massachusetts
Current Conditions -  °F | °C
As of 4:53 AM on Monday 22 Dec 2014 (Local Time) from KOWD Reporting Station
Overcast Overcast  
Wind Chill: 33°   Ceiling: 1200
Heat Index: 33°   Visibility: 10mi
Dew Point: 26°   Wind: 0mph
Humidity: 75%   Direction: NA
Pressure: 30.35"   Gusts: NA
Location:  42.08°N, 71.02°W
Report Text: KOWD 220953Z AUTO 00000KT 10SM BKN012 OVC017 01/M03 A3035 RMK AO2 SLP278 T00061033
Loading
Personal Weather Stations






























Interactive Weather Map New forecast layout! Learn more

10-Day Weather Forecast

Advertisements
Track Severe Weather on mobile